createdAt,value
2023-01-29T00:01:57.234Z,12.37
2023-01-29T00:04:25.195Z,11.37
2023-01-29T00:06:53.999Z,12.87
2023-01-29T00:09:21.517Z,10.93
2023-01-29T00:11:49.182Z,13.37
2023-01-29T00:14:16.649Z,12.27
2023-01-29T00:16:44.157Z,13.07
2023-01-29T00:19:11.635Z,12.60
2023-01-29T00:21:39.935Z,12.33
2023-01-29T00:24:08.966Z,12.67
2023-01-29T00:26:37.436Z,11.53
2023-01-29T00:29:05.021Z,13.63
2023-01-29T00:31:32.643Z,12.20
2023-01-29T00:34:00.611Z,11.43
2023-01-29T00:36:28.384Z,12.63
2023-01-29T00:38:58.564Z,12.50
2023-01-29T00:41:46.214Z,11.57
2023-01-29T00:44:31.099Z,9.90
2023-01-29T00:46:58.995Z,12.70
2023-01-29T00:49:26.925Z,12.50
2023-01-29T00:52:11.919Z,12.40
2023-01-29T00:54:39.363Z,11.23
2023-01-29T00:57:08.207Z,11.83
2023-01-29T00:59:35.740Z,11.57
2023-01-29T01:02:20.871Z,11.57
2023-01-29T01:04:48.305Z,13.10
2023-01-29T01:07:15.826Z,11.27
2023-01-29T01:10:00.624Z,12.57
2023-01-29T01:12:31.287Z,11.07
2023-01-29T01:14:58.956Z,11.10
2023-01-29T01:17:26.484Z,11.03
2023-01-29T01:19:53.977Z,9.97
2023-01-29T01:22:21.445Z,11.60
2023-01-29T01:24:49.018Z,10.47
2023-01-29T01:27:16.553Z,12.57
2023-01-29T01:29:45.711Z,10.17
2023-01-29T01:32:13.156Z,9.80
2023-01-29T01:34:40.624Z,11.17
2023-01-29T01:37:08.199Z,10.07
2023-01-29T01:39:35.808Z,10.17
2023-01-29T01:42:03.654Z,11.27
2023-01-29T01:44:54.417Z,10.63
2023-01-29T01:47:23.644Z,9.93
2023-01-29T01:49:51.507Z,10.87
2023-01-29T01:52:20.755Z,11.13
2023-01-29T01:54:48.499Z,10.30
2023-01-29T01:57:18.441Z,9.43
2023-01-29T01:59:49.467Z,11.60
2023-01-29T02:02:36.208Z,11.20
2023-01-29T02:05:21.522Z,10.67
2023-01-29T02:08:08.039Z,10.40
2023-01-29T02:10:37.626Z,11.70
2023-01-29T02:13:06.116Z,8.73
2023-01-29T02:15:33.655Z,9.53
2023-01-29T02:18:04.592Z,9.73
2023-01-29T02:20:33.427Z,11.57
2023-01-29T02:23:15.654Z,10.77
2023-01-29T02:25:51.387Z,9.63
2023-01-29T02:28:29.152Z,10.43
2023-01-29T02:31:00.373Z,11.50
2023-01-29T02:33:33.333Z,8.07
2023-01-29T02:36:07.094Z,11.17
2023-01-29T02:38:40.511Z,10.30
2023-01-29T02:41:11.859Z,9.90
2023-01-29T02:43:43.273Z,10.63
2023-01-29T02:46:17.024Z,9.23
2023-01-29T02:48:47.628Z,9.57
2023-01-29T02:51:19.328Z,8.40
2023-01-29T02:53:50.353Z,10.77
2023-01-29T02:56:19.097Z,10.23
2023-01-29T02:58:51.526Z,11.00
2023-01-29T03:01:21.706Z,9.33
2023-01-29T03:03:50.676Z,9.60
2023-01-29T03:06:22.231Z,10.70
2023-01-29T03:08:54.097Z,11.23
2023-01-29T03:11:22.065Z,12.57
2023-01-29T03:13:54.242Z,10.03
2023-01-29T03:16:25.735Z,10.53
2023-01-29T03:18:56.163Z,10.43
2023-01-29T03:21:43.464Z,10.40
2023-01-29T03:24:31.266Z,11.03
2023-01-29T03:27:20.854Z,11.60
2023-01-29T03:30:09.961Z,9.10
2023-01-29T03:32:51.308Z,10.37
2023-01-29T03:35:33.488Z,10.37
2023-01-29T03:38:02.089Z,9.47
2023-01-29T03:40:30.461Z,10.73
2023-01-29T03:43:06.771Z,10.33
2023-01-29T03:45:42.762Z,11.73
2023-01-29T03:48:13.136Z,10.30
2023-01-29T03:50:48.367Z,10.03
2023-01-29T03:53:21.950Z,10.57
2023-01-29T03:55:55.341Z,13.03
2023-01-29T03:58:26.164Z,12.30
2023-01-29T04:00:57.497Z,13.07
2023-01-29T04:03:28.392Z,12.60
2023-01-29T04:05:58.585Z,11.37
2023-01-29T04:08:32.120Z,13.33
2023-01-29T04:11:02.861Z,10.50
2023-01-29T04:13:33.872Z,12.83
2023-01-29T04:16:05.359Z,12.47
2023-01-29T04:18:56.919Z,13.93
2023-01-29T04:21:37.178Z,12.13
2023-01-29T04:24:05.465Z,12.20
2023-01-29T04:26:49.676Z,11.30
2023-01-29T04:29:27.823Z,11.40
2023-01-29T04:32:03.361Z,11.60
2023-01-29T04:34:35.035Z,14.40
2023-01-29T04:37:07.613Z,13.17
2023-01-29T04:39:41.299Z,12.37
2023-01-29T04:42:13.554Z,12.47
2023-01-29T04:44:42.329Z,11.00
2023-01-29T04:47:18.444Z,11.20
2023-01-29T04:49:48.151Z,10.53
2023-01-29T04:52:17.927Z,9.30
2023-01-29T04:54:51.731Z,10.73
2023-01-29T04:57:23.096Z,11.13
2023-01-29T04:59:52.147Z,10.70
2023-01-29T05:02:24.019Z,12.40
2023-01-29T05:04:51.704Z,12.23
2023-01-29T05:07:20.503Z,11.47
2023-01-29T05:09:48.651Z,13.40
2023-01-29T05:12:17.332Z,12.70
2023-01-29T05:14:46.292Z,12.67
2023-01-29T05:17:15.392Z,11.40
2023-01-29T05:19:44.502Z,13.70
2023-01-29T05:22:13.430Z,16.20
2023-01-29T05:24:41.028Z,15.63
2023-01-29T05:27:30.380Z,14.60
2023-01-29T05:29:57.921Z,10.93
2023-01-29T05:32:25.385Z,11.27
2023-01-29T05:34:54.199Z,13.80
2023-01-29T05:37:21.675Z,12.70
2023-01-29T05:39:49.129Z,13.37
2023-01-29T05:42:16.592Z,12.63
2023-01-29T05:44:45.073Z,13.70
2023-01-29T05:47:12.872Z,12.00
2023-01-29T05:49:45.821Z,12.27
2023-01-29T05:52:16.479Z,13.40
2023-01-29T05:54:43.940Z,13.47
2023-01-29T05:57:11.748Z,14.27
2023-01-29T05:59:39.974Z,10.97
2023-01-29T06:02:07.773Z,11.77
2023-01-29T06:04:37.634Z,11.70
2023-01-29T06:07:05.265Z,12.90
2023-01-29T06:09:34.063Z,14.33
2023-01-29T06:12:02.108Z,11.30
2023-01-29T06:14:29.883Z,12.67
2023-01-29T06:16:57.339Z,11.27
2023-01-29T06:19:24.988Z,12.30
2023-01-29T06:21:52.449Z,9.23
2023-01-29T06:24:20.038Z,10.07
2023-01-29T06:26:48.862Z,9.40
2023-01-29T06:29:16.455Z,9.37
2023-01-29T06:31:44.100Z,10.83
2023-01-29T06:34:11.671Z,9.43
2023-01-29T06:36:39.267Z,9.63
2023-01-29T06:39:06.816Z,9.20
2023-01-29T06:41:34.625Z,8.87
2023-01-29T06:44:03.470Z,9.57
2023-01-29T06:46:31.142Z,8.03
2023-01-29T06:48:58.953Z,8.83
2023-01-29T06:51:26.413Z,8.80
2023-01-29T06:53:56.021Z,8.53
2023-01-29T06:56:23.850Z,8.53
2023-01-29T06:58:51.340Z,10.60
2023-01-29T07:01:34.544Z,8.43
2023-01-29T07:04:02.871Z,9.03
2023-01-29T07:06:31.068Z,8.63
2023-01-29T07:08:58.580Z,8.67
2023-01-29T07:11:26.101Z,9.77
2023-01-29T07:13:53.592Z,9.63
2023-01-29T07:16:23.294Z,8.30
2023-01-29T07:18:50.742Z,8.93
2023-01-29T07:21:18.283Z,10.20
2023-01-29T07:23:46.069Z,25.67
2023-01-29T07:26:13.564Z,14.10
2023-01-29T07:28:41.486Z,13.47
2023-01-29T07:31:09.808Z,12.77
2023-01-29T07:33:38.716Z,11.37
2023-01-29T07:36:08.573Z,14.33
2023-01-29T07:38:36.036Z,12.67
2023-01-29T07:41:04.014Z,12.30
2023-01-29T07:43:31.505Z,12.10
2023-01-29T07:46:02.444Z,10.57
2023-01-29T07:48:30.127Z,11.60
2023-01-29T07:50:59.388Z,11.10
2023-01-29T07:53:26.912Z,12.00
2023-01-29T07:55:54.467Z,11.57
2023-01-29T07:58:21.979Z,14.80
2023-01-29T08:00:49.492Z,15.00
2023-01-29T08:03:17.750Z,13.23
2023-01-29T08:05:45.599Z,13.03
2023-01-29T08:08:14.762Z,13.77
2023-01-29T08:10:42.904Z,16.50
2023-01-29T08:13:10.554Z,13.70
2023-01-29T08:15:39.293Z,14.17
2023-01-29T08:18:06.964Z,13.37
2023-01-29T08:20:34.459Z,12.80
2023-01-29T08:23:02.466Z,11.83
2023-01-29T08:25:31.450Z,11.50
2023-01-29T08:27:59.834Z,12.03
2023-01-29T08:30:27.891Z,12.20
2023-01-29T08:32:55.407Z,16.17
2023-01-29T08:35:23.090Z,12.33
2023-01-29T08:37:54.103Z,18.10
2023-01-29T08:40:21.558Z,12.20
2023-01-29T08:42:50.390Z,10.67
2023-01-29T08:45:18.068Z,9.97
2023-01-29T08:47:49.013Z,9.30
2023-01-29T08:50:17.056Z,11.27
2023-01-29T08:52:44.916Z,11.93
2023-01-29T08:55:13.155Z,10.77
2023-01-29T08:57:40.828Z,10.30
2023-01-29T09:00:10.978Z,10.87
2023-01-29T09:02:39.043Z,11.03
2023-01-29T09:05:07.205Z,11.20
2023-01-29T09:07:34.928Z,10.67
2023-01-29T09:10:02.397Z,13.20
2023-01-29T09:12:30.815Z,13.00
2023-01-29T09:14:58.307Z,11.27
2023-01-29T09:17:27.133Z,10.80
2023-01-29T09:19:54.851Z,10.97
2023-01-29T09:22:22.481Z,12.33
2023-01-29T09:24:50.546Z,12.97
2023-01-29T09:27:18.045Z,12.53
2023-01-29T09:29:45.473Z,14.30
2023-01-29T09:32:12.985Z,13.33
2023-01-29T09:34:42.076Z,12.67
2023-01-29T09:37:09.562Z,14.10
2023-01-29T09:39:37.295Z,13.70
2023-01-29T09:42:09.226Z,13.37
2023-01-29T09:44:47.291Z,11.33
2023-01-29T09:47:15.853Z,11.57
2023-01-29T09:49:47.103Z,10.33
2023-01-29T09:52:17.336Z,11.53
2023-01-29T09:54:49.946Z,10.77
2023-01-29T09:57:19.813Z,11.23
2023-01-29T09:59:47.480Z,13.93
2023-01-29T10:02:22.344Z,11.63
2023-01-29T10:04:59.292Z,13.00
2023-01-29T10:07:33.607Z,13.27
2023-01-29T10:10:15.952Z,12.77
2023-01-29T10:12:56.611Z,11.80
2023-01-29T10:15:31.696Z,12.40
2023-01-29T10:18:04.204Z,12.90
2023-01-29T10:20:40.904Z,11.70
2023-01-29T10:23:15.475Z,12.67
2023-01-29T10:25:43.130Z,13.00
2023-01-29T10:28:16.968Z,12.90
2023-01-29T10:30:47.281Z,11.00
2023-01-29T10:33:18.410Z,10.77
2023-01-29T10:35:53.377Z,10.73
2023-01-29T10:38:39.874Z,9.83
2023-01-29T10:41:15.555Z,8.90
2023-01-29T10:43:48.538Z,9.87
2023-01-29T10:46:23.445Z,9.80
2023-01-29T10:48:58.771Z,9.23
2023-01-29T10:51:33.995Z,9.57
2023-01-29T10:54:09.810Z,9.17
2023-01-29T10:56:52.446Z,9.07
2023-01-29T10:59:30.819Z,9.10
2023-01-29T11:01:59.009Z,8.30
2023-01-29T11:04:27.634Z,9.53
2023-01-29T11:06:56.422Z,9.70
2023-01-29T11:09:28.732Z,7.97
2023-01-29T11:11:58.744Z,8.60
2023-01-29T11:14:27.952Z,9.00
2023-01-29T11:16:56.458Z,8.73
2023-01-29T11:19:37.222Z,10.53
2023-01-29T11:22:09.302Z,8.40
2023-01-29T11:24:36.753Z,9.40
2023-01-29T11:27:14.275Z,9.10
2023-01-29T11:29:43.897Z,8.87
2023-01-29T11:32:13.644Z,11.00
2023-01-29T11:34:55.980Z,8.03
2023-01-29T11:37:28.585Z,10.53
2023-01-29T11:39:56.043Z,8.50
2023-01-29T11:42:23.994Z,8.67
2023-01-29T11:44:51.450Z,9.27
2023-01-29T11:47:19.925Z,8.83
2023-01-29T11:49:48.746Z,10.47
2023-01-29T11:52:18.043Z,9.33
2023-01-29T11:54:48.183Z,9.07
2023-01-29T11:57:23.036Z,11.67
2023-01-29T11:59:51.360Z,12.30
2023-01-29T12:02:22.212Z,9.70
2023-01-29T12:04:50.599Z,10.03
2023-01-29T12:07:19.337Z,12.27
2023-01-29T12:09:53.399Z,9.50
2023-01-29T12:12:39.166Z,9.47
2023-01-29T12:15:15.573Z,9.93
2023-01-29T12:17:46.212Z,10.53
2023-01-29T12:20:16.288Z,10.47
2023-01-29T12:22:52.767Z,9.37
2023-01-29T12:25:23.803Z,11.47
2023-01-29T12:27:56.476Z,8.50
2023-01-29T12:30:26.564Z,11.13
2023-01-29T12:32:57.631Z,11.23
2023-01-29T12:35:27.860Z,9.20
2023-01-29T12:37:56.566Z,13.07
2023-01-29T12:40:28.365Z,12.80
2023-01-29T12:42:58.701Z,10.40
2023-01-29T12:45:27.921Z,11.37
2023-01-29T12:47:58.394Z,12.03
2023-01-29T12:50:27.847Z,10.60
2023-01-29T12:52:57.465Z,12.93
2023-01-29T12:55:28.935Z,12.37
2023-01-29T12:57:58.499Z,12.23
2023-01-29T13:00:27.725Z,11.10
2023-01-29T13:02:57.895Z,10.67
2023-01-29T13:05:26.916Z,11.87
2023-01-29T13:07:57.731Z,11.27
2023-01-29T13:10:29.251Z,10.57
2023-01-29T13:12:59.808Z,10.83
2023-01-29T13:15:30.011Z,10.27
2023-01-29T13:18:02.116Z,12.67
2023-01-29T13:20:32.775Z,10.73
2023-01-29T13:23:08.310Z,10.60
2023-01-29T13:25:38.628Z,11.57
2023-01-29T13:28:07.965Z,11.10
2023-01-29T13:30:37.735Z,11.90
2023-01-29T13:33:10.905Z,10.73
2023-01-29T13:35:43.259Z,12.07
2023-01-29T13:38:24.479Z,12.10
2023-01-29T13:41:03.137Z,9.93
2023-01-29T13:43:35.526Z,11.67
2023-01-29T13:46:08.328Z,13.73
2023-01-29T13:48:42.704Z,10.93
2023-01-29T13:51:16.672Z,12.20
2023-01-29T13:53:45.887Z,11.27
2023-01-29T13:56:44.439Z,13.13
2023-01-29T13:59:22.552Z,12.83
2023-01-29T14:02:04.634Z,11.73
2023-01-29T14:04:35.405Z,15.57
2023-01-29T14:07:25.619Z,12.43
2023-01-29T14:10:03.672Z,13.70
2023-01-29T14:12:41.075Z,12.90
2023-01-29T14:15:21.403Z,13.43
2023-01-29T14:17:58.226Z,13.27
2023-01-29T14:20:43.162Z,12.53
2023-01-29T14:23:20.653Z,12.97
2023-01-29T14:25:48.378Z,12.60
2023-01-29T14:28:22.991Z,11.77
2023-01-29T14:30:52.628Z,12.57
2023-01-29T14:33:26.381Z,13.20
2023-01-29T14:35:56.270Z,11.90
2023-01-29T14:38:28.364Z,12.33
2023-01-29T14:41:04.642Z,13.47
2023-01-29T14:43:33.523Z,13.37
2023-01-29T14:46:15.878Z,13.00
2023-01-29T14:48:48.814Z,14.57
2023-01-29T14:51:17.676Z,14.40
2023-01-29T14:53:49.721Z,11.10
2023-01-29T14:56:18.511Z,11.97
2023-01-29T14:58:49.831Z,13.70
2023-01-29T15:01:21.063Z,13.13
2023-01-29T15:03:53.436Z,13.47
2023-01-29T15:06:26.164Z,12.03
2023-01-29T15:08:56.421Z,12.47
2023-01-29T15:11:37.503Z,12.53
2023-01-29T15:14:15.344Z,14.87
2023-01-29T15:16:51.617Z,11.90
2023-01-29T15:19:23.834Z,12.53
2023-01-29T15:22:08.967Z,13.60
2023-01-29T15:24:36.691Z,13.40
2023-01-29T15:27:04.390Z,13.47
2023-01-29T15:29:35.268Z,15.60
2023-01-29T15:32:04.779Z,14.83
2023-01-29T15:34:32.536Z,14.57
2023-01-29T15:37:00.660Z,14.30
2023-01-29T15:39:33.258Z,15.87
2023-01-29T15:42:13.846Z,13.70
2023-01-29T15:44:49.201Z,13.40
2023-01-29T15:47:18.108Z,15.90
2023-01-29T15:49:49.023Z,15.43
2023-01-29T15:52:20.426Z,13.23
2023-01-29T15:54:48.136Z,13.53
2023-01-29T15:57:24.856Z,11.83
2023-01-29T15:59:54.857Z,11.13
2023-01-29T16:02:29.156Z,13.57
2023-01-29T16:04:56.747Z,11.73
2023-01-29T16:07:24.359Z,11.40
2023-01-29T16:09:53.489Z,12.37
2023-01-29T16:12:22.410Z,12.17
2023-01-29T16:14:54.023Z,12.63
2023-01-29T16:17:27.259Z,12.77
2023-01-29T16:19:58.717Z,12.37
2023-01-29T16:22:27.301Z,13.37
2023-01-29T16:24:56.452Z,12.33
2023-01-29T16:27:27.309Z,16.63
2023-01-29T16:29:54.727Z,19.33
2023-01-29T16:32:23.217Z,12.33
2023-01-29T16:34:57.727Z,11.90
2023-01-29T16:37:27.920Z,13.73
2023-01-29T16:39:57.019Z,15.30
2023-01-29T16:42:30.244Z,13.93
2023-01-29T16:44:59.980Z,13.50
2023-01-29T16:47:33.481Z,14.50
2023-01-29T16:50:22.325Z,12.60
2023-01-29T16:52:57.733Z,12.20
2023-01-29T16:55:27.533Z,13.40
2023-01-29T16:57:57.220Z,13.03
2023-01-29T17:00:26.504Z,14.20
2023-01-29T17:02:55.556Z,13.70
2023-01-29T17:05:28.174Z,12.47
2023-01-29T17:07:57.583Z,13.30
2023-01-29T17:10:27.108Z,12.10
2023-01-29T17:12:57.333Z,14.50
2023-01-29T17:15:37.760Z,12.27
2023-01-29T17:18:12.777Z,12.10
2023-01-29T17:20:41.929Z,13.13
2023-01-29T17:23:09.371Z,14.57
2023-01-29T17:25:37.748Z,13.77
2023-01-29T17:28:05.899Z,12.50
2023-01-29T17:30:37.213Z,11.53
2023-01-29T17:33:11.551Z,13.90
2023-01-29T17:35:39.095Z,15.37
2023-01-29T17:38:20.646Z,12.97
2023-01-29T17:40:55.601Z,15.20
2023-01-29T17:43:24.291Z,14.27
2023-01-29T17:45:51.961Z,16.80
2023-01-29T17:48:23.886Z,16.90
2023-01-29T17:50:54.222Z,16.53
2023-01-29T17:53:30.515Z,14.50
2023-01-29T17:56:06.278Z,18.27
2023-01-29T17:58:34.151Z,15.33
2023-01-29T18:01:04.560Z,15.53
2023-01-29T18:03:32.095Z,14.87
2023-01-29T18:06:03.856Z,14.43
2023-01-29T18:08:34.440Z,14.60
2023-01-29T18:11:04.374Z,15.57
2023-01-29T18:13:33.196Z,15.07
2023-01-29T18:16:02.394Z,15.47
2023-01-29T18:18:30.123Z,18.20
2023-01-29T18:20:57.980Z,16.10
2023-01-29T18:23:25.997Z,14.73
2023-01-29T18:25:57.632Z,21.70
2023-01-29T18:28:27.541Z,16.73
2023-01-29T18:30:55.658Z,17.23
2023-01-29T18:33:24.862Z,15.03
2023-01-29T18:35:54.932Z,15.53
2023-01-29T18:38:23.783Z,15.73
2023-01-29T18:40:52.536Z,19.87
2023-01-29T18:43:21.356Z,18.53
2023-01-29T18:45:49.400Z,16.40
2023-01-29T18:48:17.103Z,17.80
2023-01-29T18:50:45.888Z,17.07
2023-01-29T18:53:14.150Z,16.47
2023-01-29T18:55:43.429Z,17.40
2023-01-29T18:58:26.740Z,16.27
2023-01-29T19:01:01.075Z,17.23
2023-01-29T19:03:29.936Z,16.57
2023-01-29T19:06:03.200Z,17.37
2023-01-29T19:08:32.006Z,18.40
2023-01-29T19:11:02.157Z,17.33
2023-01-29T19:13:31.689Z,20.00
2023-01-29T19:16:00.967Z,19.03
2023-01-29T19:18:29.352Z,16.67
2023-01-29T19:20:58.796Z,17.43
2023-01-29T19:23:26.543Z,18.40
2023-01-29T19:25:54.023Z,20.90
2023-01-29T19:28:21.827Z,17.30
2023-01-29T19:30:49.354Z,16.47
2023-01-29T19:33:20.901Z,16.83
2023-01-29T19:35:48.364Z,16.83
2023-01-29T19:38:19.801Z,17.90
2023-01-29T19:40:47.530Z,19.87
2023-01-29T19:43:15.905Z,16.47
2023-01-29T19:45:50.474Z,18.57
2023-01-29T19:48:23.135Z,17.60
2023-01-29T19:50:55.062Z,18.83
2023-01-29T19:53:24.192Z,19.13
2023-01-29T19:55:57.788Z,18.47
2023-01-29T19:58:26.024Z,22.37
2023-01-29T20:00:57.671Z,17.90
2023-01-29T20:03:26.886Z,18.73
2023-01-29T20:05:55.391Z,19.00
2023-01-29T20:08:23.938Z,16.67
2023-01-29T20:10:51.514Z,20.50
2023-01-29T20:13:21.064Z,19.53
2023-01-29T20:15:49.945Z,21.43
2023-01-29T20:18:19.217Z,24.30
2023-01-29T20:20:49.063Z,23.53
2023-01-29T20:23:31.759Z,23.10
2023-01-29T20:26:04.835Z,20.77
2023-01-29T20:28:34.431Z,18.23
2023-01-29T20:31:03.015Z,19.97
2023-01-29T20:33:33.731Z,18.60
2023-01-29T20:36:06.601Z,18.43
2023-01-29T20:38:36.130Z,18.80
2023-01-29T20:41:05.122Z,25.07
2023-01-29T20:43:33.639Z,23.33
2023-01-29T20:46:02.863Z,21.13
2023-01-29T20:48:32.424Z,19.27
2023-01-29T20:51:05.805Z,18.67
2023-01-29T20:53:33.746Z,18.83
2023-01-29T20:56:04.163Z,18.03
2023-01-29T20:58:33.553Z,21.00
2023-01-29T21:01:03.921Z,21.00
2023-01-29T21:03:32.795Z,22.00
2023-01-29T21:06:00.754Z,21.10
2023-01-29T21:08:33.995Z,19.10
2023-01-29T21:11:02.186Z,20.97
2023-01-29T21:13:31.054Z,18.60
2023-01-29T21:15:59.393Z,18.77
2023-01-29T21:18:29.044Z,18.23
2023-01-29T21:20:56.639Z,17.90
2023-01-29T21:23:24.169Z,20.97
2023-01-29T21:25:54.086Z,22.20
2023-01-29T21:28:23.999Z,19.53
2023-01-29T21:30:52.961Z,19.50
2023-01-29T21:33:22.308Z,20.03
2023-01-29T21:35:59.238Z,18.07
2023-01-29T21:38:28.331Z,20.47
2023-01-29T21:41:05.953Z,19.80
2023-01-29T21:43:33.561Z,21.20
2023-01-29T21:46:03.815Z,20.83
2023-01-29T21:48:31.789Z,21.67
2023-01-29T21:51:02.650Z,21.30
2023-01-29T21:53:30.204Z,20.97
2023-01-29T21:56:03.653Z,22.53
2023-01-29T21:58:32.754Z,21.67
2023-01-29T22:01:11.517Z,23.00
2023-01-29T22:03:54.345Z,19.90
2023-01-29T22:06:23.614Z,19.33
2023-01-29T22:08:51.203Z,21.73
2023-01-29T22:11:22.127Z,20.17
2023-01-29T22:13:53.472Z,22.43
2023-01-29T22:16:20.901Z,20.03
2023-01-29T22:18:50.275Z,22.43
2023-01-29T22:21:19.241Z,20.77
2023-01-29T22:23:49.022Z,19.67
2023-01-29T22:26:18.685Z,19.33
2023-01-29T22:28:49.057Z,19.93
2023-01-29T22:31:16.734Z,22.50
2023-01-29T22:33:46.707Z,24.30
2023-01-29T22:36:16.633Z,21.63
2023-01-29T22:38:44.165Z,20.73
2023-01-29T22:41:11.795Z,22.37
2023-01-29T22:43:42.094Z,19.67
2023-01-29T22:46:11.716Z,20.77
2023-01-29T22:48:39.807Z,21.57
2023-01-29T22:51:11.895Z,22.60
2023-01-29T22:53:43.926Z,21.40
2023-01-29T22:56:12.577Z,21.23
2023-01-29T22:58:41.042Z,26.00
2023-01-29T23:01:08.662Z,20.93
2023-01-29T23:03:40.059Z,22.07
2023-01-29T23:06:07.669Z,21.87
2023-01-29T23:08:36.906Z,25.43
2023-01-29T23:11:14.968Z,22.77
2023-01-29T23:13:44.139Z,21.03
2023-01-29T23:16:12.245Z,24.70
2023-01-29T23:18:45.815Z,22.40
2023-01-29T23:21:14.111Z,23.90
2023-01-29T23:23:44.061Z,23.07
2023-01-29T23:26:32.485Z,20.90
2023-01-29T23:29:04.772Z,23.67
2023-01-29T23:31:34.764Z,21.53
2023-01-29T23:34:04.587Z,22.30
2023-01-29T23:36:32.472Z,22.73
2023-01-29T23:38:59.914Z,21.97
2023-01-29T23:41:27.790Z,22.00
2023-01-29T23:43:56.233Z,21.00
2023-01-29T23:46:25.583Z,23.63
2023-01-29T23:48:54.880Z,23.90
2023-01-29T23:51:23.806Z,26.63
2023-01-29T23:53:51.619Z,24.57
2023-01-29T23:56:22.105Z,22.13
2023-01-29T23:58:53.014Z,25.17
